Nearby METAR Reports

 

KMTN - Baltimore/Martin, Maryland, USA
Distance from station: SSE 8mi, 13km
Updated: Sun, 21-Sep-2014 7:54pm EDT
Partly cloudy
Partly cloudy
 Wind from calm
Wind: Calm
Temperature: 73°F , 23°C
Dew Point: 66°F , 19°C
Humidity: 78%
Barometer: 29.67 inHg , 1004.7 hPa
Clouds: Partly cloudy
Visibility: 10 miles , 16 km
Cloud details: Partly cloudy 7000 ft
2014/09/21 23:54 KMTN 212354Z 00000KT 10SM SCT070 23/19 A2967
KDMH - Baltimore/Dwntwn, Maryland, USA
Distance from station: SW 12mi, 19km
Updated: Sun, 21-Sep-2014 7:54pm EDT

 
Temperature: 75°F , 24°C
Dew Point: 64°F , 18°C
Humidity: 69%
Barometer: 29.66 inHg , 1004.4 hPa
2014/09/21 23:54 KDMH 212354Z AUTO 24/18 A2966 RMK AO1 SLP043 T02440183 10278 20244 53002
 
KBWI - Balto/Wash Intl, Maryland, USA
Distance from station: SSW 20mi, 33km
Updated: Sun, 21-Sep-2014 7:54pm EDT
Partly cloudy
Partly cloudy
 Wind from SE
Wind: SE 3 mph , 6 km/h
Temperature: 73°F , 23°C
Dew Point: 66°F , 19°C
Humidity: 78%
Barometer: 29.65 inHg , 1004.1 hPa
Clouds: Partly cloudy
Visibility: 10 miles , 16 km
Cloud details: Partly cloudy 7000 ft
Partly cloudy 15000 ft
2014/09/21 23:54 KBWI 212354Z 14003KT 10SM SCT070 SCT150 23/19 A2965 RMK AO2 SLP041 T02280189 10289 20228 53002
KDMW - Carroll Cnty, Maryland, USA
Distance from station: WNW 30mi, 48km
Updated: Sun, 21-Sep-2014 7:45pm EDT
Partly cloudy
Partly cloudy
 Wind from S
Wind: S 5 mph , 7 km/h
Temperature: 73°F , 23°C
Dew Point: 66°F , 19°C
Humidity: 78%
Barometer: 29.67 inHg , 1004.7 hPa
Clouds: Partly cloudy
Visibility: 10 miles , 16 km
Cloud details: Partly cloudy 12000 ft
2014/09/21 23:45 KDMW 212345Z AUTO 19004KT 10SM SCT120 23/19 A2967 RMK AO2
 
KNAK - Annapolis/Naval, Maryland, USA
Distance from station: S 30mi, 48km
Updated: Sun, 21-Sep-2014 7:54pm EDT

 Wind from SSE
Wind: SSE 5 mph , 7 km/h
Temperature: 73°F , 23°C
Dew Point: 64°F , 18°C
Humidity: 74%
Barometer: 29.66 inHg , 1004.4 hPa
Visibility: 10 miles , 16 km
2014/09/21 23:54 KNAK 212354Z AUTO 15004KT 10SM 23/18 A2966 RMK AO2 SLP044 T02280178 10250 20228 $
KW29 - Stevensville, Maryland, USA
Distance from station: SSE 31mi, 50km
Updated: Sun, 21-Sep-2014 7:46pm EDT

 Wind from SSE
Wind: SSE 6 mph , 9 km/h
Temperature: 73°F , 23°C
Dew Point: 59°F , 15°C
Humidity: 61%
Barometer: 29.66 inHg , 1004.4 hPa
Visibility: 10 miles , 16 km
2014/09/21 23:46 KW29 212346Z AUTO 16005KT 10SM 23/15 A2966 RMK AO1
 
KCGS - College Park, Maryland, USA
Distance from station: SW 38mi, 61km
Updated: Sun, 21-Sep-2014 7:40pm EDT
Mostly cloudy
Mostly cloudy
 Wind from calm
Wind: Calm
Temperature: 77°F , 25°C
Dew Point: 63°F , 17°C
Humidity: 61%
Barometer: 29.65 inHg , 1004.1 hPa
Clouds: Mostly cloudy
Visibility: 10 miles , 16 km
Cloud details: Partly cloudy 8000 ft
Partly cloudy 9000 ft
Mostly cloudy 12000 ft
2014/09/21 23:40 KCGS 212340Z AUTO 00000KT 10SM SCT080 SCT090 BKN120 25/17 A2965 RMK AO1
KGAI - Gaithersburg, Maryland, USA
Distance from station: WSW 40mi, 65km
Updated: Sun, 21-Sep-2014 7:55pm EDT
Partly cloudy
Partly cloudy
 Wind from S
Wind: S 3 mph , 6 km/h
Temperature: 72°F , 22°C
Dew Point: 64°F , 18°C
Humidity: 78%
Barometer: 29.71 inHg , 1006.1 hPa
Clouds: Partly cloudy
Visibility: 10 miles , 16 km
Cloud details: Partly cloudy 7000 ft
Partly cloudy 9000 ft
2014/09/21 23:55 KGAI 212355Z 18003KT 10SM SCT070 SCT090 22/18 A2971 RMK AO1 10290 20220 402900120 52007
 
KTHV - York, Pennsylvania, USA
Distance from station: NNW 40mi, 65km
Updated: Sun, 21-Sep-2014 7:53pm EDT
Partly cloudy
Partly cloudy
 Wind from SW
Wind: SW 5 mph , 7 km/h
Temperature: 73°F , 23°C
Dew Point: 63°F , 17°C
Humidity: 69%
Barometer: 29.64 inHg , 1003.7 hPa
Clouds: Partly cloudy
Visibility: 10 miles , 16 km
Cloud details: Partly cloudy 9000 ft
2014/09/21 23:53 KTHV 212353Z AUTO 22004KT 10SM SCT090 23/17 A2964 RMK AO2 SLP036 60000 T02280172 10294 20211 50001
KFDK - Frederick, Maryland, USA
Distance from station: W 47mi, 75km
Updated: Sun, 21-Sep-2014 7:45pm EDT
Mostly cloudy
Mostly cloudy
 Wind from varies
Wind: varies 3 mph , 6 km/h
Temperature: 75°F , 24°C
Dew Point: 66°F , 19°C
Humidity: 74%
Barometer: 29.68 inHg , 1005.1 hPa
Clouds: Mostly cloudy
Visibility: 10 miles , 16 km
Cloud details: Mostly cloudy 7500 ft
2014/09/21 23:45 KFDK 212345Z VRB03KT 10SM BKN075 24/19 A2968
 
KESN - Easton/Newnam, Maryland, USA
Distance from station: SSE 48mi, 78km
Updated: Sun, 21-Sep-2014 7:55pm EDT
Partly cloudy
Partly cloudy
 Wind from calm
Wind: Calm
Temperature: 73°F , 23°C
Dew Point: 61°F , 16°C
Humidity: 65%
Barometer: 29.71 inHg , 1006.1 hPa
Clouds: Partly cloudy
Visibility: 10 miles , 16 km
Cloud details: Partly cloudy 20000 ft
2014/09/21 23:55 KESN 212355Z 00000KT 10SM SCT200 23/16 A2971
KDCA - Washington/Natl, Washington D.c., USA
Distance from station: SW 49mi, 79km
Updated: Sun, 21-Sep-2014 7:52pm EDT
Overcast
Overcast
 Wind from SSW
Wind: SSW 9 mph , 15 km/h
Temperature: 81°F , 27°C
Heat Index: 82°F , 28°C
Dew Point: 61°F , 16°C
Humidity: 51%
Barometer: 29.66 inHg , 1004.4 hPa
Clouds: Overcast
Visibility: 10 miles , 16 km
Cloud details: Partly cloudy 6000 ft
Mostly cloudy 7500 ft
Overcast 9500 ft
2014/09/21 23:52 KDCA 212352Z 20008KT 10SM SCT060 BKN075 OVC095 27/16 A2966 RMK AO2 RAB30E42 SLP045 P0000 60000 T02720156 10300 20261 53001 $
 
KLNS - Lancaster, Pennsylvania, USA
Distance from station: N 49mi, 79km
Updated: Sun, 21-Sep-2014 7:53pm EDT
Partly cloudy
Partly cloudy
 Wind from SSW
Wind: SSW 6 mph , 9 km/h
Temperature: 73°F , 23°C
Dew Point: 63°F , 17°C
Humidity: 69%
Barometer: 29.64 inHg , 1003.7 hPa
Clouds: Partly cloudy
Visibility: 10 miles , 16 km
Cloud details: Partly cloudy 6000 ft
2014/09/21 23:53 KLNS 212353Z 20005KT 10SM SCT060 23/17 A2964 RMK AO2 SLP035 T02330172 10283 20233 53003
KILG - Wilmington, Delaware, USA
Distance from station: ENE 50mi, 81km
Updated: Sun, 21-Sep-2014 7:51pm EDT
Overcast
Overcast
 Wind from S
Wind: S 7 mph , 11 km/h
Temperature: 73°F , 23°C
Dew Point: 64°F , 18°C
Humidity: 74%
Barometer: 29.66 inHg , 1004.4 hPa
Clouds: Overcast
Visibility: 10 miles , 16 km
Cloud details: Mostly cloudy 7000 ft
Overcast 8000 ft
2014/09/21 23:51 KILG 212351Z 18006KT 10SM BKN070 OVC080 23/18 A2966 RMK AO2 SLP042 T02280183 10267 20228 53000